Time;durP1;ratioP1;P1;durP2;ratioP2;P2;SDS_P1;SDS_P2;PMS_P1;PMS_P2;Temp;Humidity;BMP_temperature;BMP_pressure;BME280_temperature;BME280_humidity;BME280_pressure;Samples;Min_cycle;Max_cycle;Signal;HPM_P1;HPM_P2
2023/10/29 00:02:16;;;;;;;18.17;3.45;;;;;;;11.44;100.00;99568.13;6193553;28;20054;-74
2023/10/29 00:05:18;;;;;;;7.45;3.30;;;;;;;11.40;100.00;99568.47;6205560;28;20088;-74
2023/10/29 00:08:19;;;;;;;;;;;;;;;11.39;100.00;99572.88;6216955;28;20057;-76
2023/10/29 00:11:21;;;;;;;21.10;3.08;;;;;;;11.38;100.00;99571.19;6216460;28;19921;-76
2023/10/29 00:14:22;;;;;;;17.80;3.33;;;;;;;11.29;100.00;99571.84;6217814;28;20088;-76
2023/10/29 00:17:23;;;;;;;21.20;3.13;;;;;;;11.32;100.00;99576.84;6217497;28;20049;-76
2023/10/29 00:20:24;;;;;;;10.18;3.45;;;;;;;11.36;100.00;99570.47;6217611;28;20432;-76
2023/10/29 00:23:25;;;;;;;6.25;3.40;;;;;;;11.43;100.00;99576.09;6216182;28;20053;-73
2023/10/29 00:26:25;;;;;;;12.77;4.15;;;;;;;11.50;100.00;99566.84;6216186;28;20100;-73
2023/10/29 00:29:26;;;;;;;14.35;4.22;;;;;;;11.46;100.00;99562.78;6219655;28;20489;-75
2023/10/29 00:32:27;;;;;;;8.38;4.60;;;;;;;11.44;100.00;99562.91;6220661;28;20483;-76
2023/10/29 00:35:28;;;;;;;6.82;4.40;;;;;;;11.43;100.00;99574.31;6207714;28;20062;-75
2023/10/29 00:38:29;;;;;;;11.95;4.05;;;;;;;11.48;100.00;99571.34;6196880;28;20174;-75
2023/10/29 00:41:30;;;;;;;10.90;4.25;;;;;;;11.52;100.00;99567.56;6197200;28;20053;-73
2023/10/29 00:44:36;;;;;;;9.38;4.35;;;;;;;11.53;100.00;99576.25;6195817;28;20115;-76
2023/10/29 00:47:40;;;;;;;7.88;4.10;;;;;;;11.49;100.00;99573.88;6195961;28;20467;-73
2023/10/29 00:50:41;;;;;;;10.02;3.83;;;;;;;11.54;100.00;99591.81;6196716;28;20046;-75
2023/10/29 00:53:43;;;;;;;10.40;4.28;;;;;;;11.40;100.00;99592.81;6195833;28;20054;-73
2023/10/29 00:56:44;;;;;;;6.57;3.83;;;;;;;11.45;100.00;99585.47;6195572;28;20489;-73
2023/10/29 00:59:45;;;;;;;25.80;3.92;;;;;;;11.50;100.00;99595.59;6197247;28;20474;-74
2023/10/29 01:02:46;;;;;;;23.65;3.80;;;;;;;11.44;100.00;99585.59;6195794;28;20061;-73
2023/10/29 01:05:48;;;;;;;54.58;4.45;;;;;;;11.45;100.00;99589.88;6200711;28;20053;-76
2023/10/29 01:08:50;;;;;;;63.20;4.20;;;;;;;11.42;100.00;99596.13;6196503;28;20059;-76
2023/10/29 01:11:53;;;;;;;46.92;4.20;;;;;;;11.47;100.00;99598.44;6195577;28;20057;-76
2023/10/29 01:14:56;;;;;;;22.77;3.40;;;;;;;11.44;100.00;99596.88;6196444;28;20528;-76
2023/10/29 01:17:57;;;;;;;30.25;3.60;;;;;;;11.46;100.00;99596.75;6195576;28;20058;-73
2023/10/29 01:20:59;;;;;;;20.40;3.58;;;;;;;11.48;100.00;99608.75;6195163;28;20127;-73
2023/10/29 01:24:02;;;;;;;57.35;3.78;;;;;;;11.38;100.00;99610.38;6196317;28;20060;-73
2023/10/29 01:27:03;;;;;;;52.03;3.92;;;;;;;11.38;100.00;99618.19;6196396;28;20047;-73
2023/10/29 01:30:05;;;;;;;45.55;4.00;;;;;;;11.35;100.00;99625.44;6194998;28;20082;-73
2023/10/29 01:33:06;;;;;;;34.75;3.88;;;;;;;11.33;100.00;99620.31;6196461;28;20042;-75
2023/10/29 01:36:07;;;;;;;37.75;4.40;;;;;;;11.27;100.00;99608.53;6206165;28;20110;-75
2023/10/29 01:39:08;;;;;;;52.83;4.43;;;;;;;11.29;100.00;99616.25;6219687;28;20061;-76
2023/10/29 01:42:09;;;;;;;47.35;4.80;;;;;;;11.28;100.00;99611.97;6219190;28;20089;-75
2023/10/29 01:45:14;;;;;;;27.30;3.85;;;;;;;11.28;100.00;99618.03;6220713;28;20053;-76
2023/10/29 01:48:16;;;;;;;31.05;4.25;;;;;;;11.23;100.00;99625.34;6220103;28;20421;-76
2023/10/29 01:51:17;;;;;;;37.20;4.95;;;;;;;11.22;100.00;99626.31;6219901;28;20046;-74
2023/10/29 01:54:18;;;;;;;67.35;5.82;;;;;;;11.10;100.00;99627.16;6220053;28;20132;-76
2023/10/29 01:57:19;;;;;;;28.15;4.65;;;;;;;11.14;100.00;99636.47;6219967;28;20520;-76
2023/10/29 02:00:20;;;;;;;21.75;4.95;;;;;;;11.21;100.00;99624.63;6220034;28;20417;-73
2023/10/29 02:03:21;;;;;;;69.28;5.80;;;;;;;11.29;100.00;99613.66;6218605;28;20478;-76
2023/10/29 02:06:22;;;;;;;40.53;5.55;;;;;;;11.24;100.00;99615.72;6218833;28;20103;-74
2023/10/29 02:09:24;;;;;;;39.28;5.40;;;;;;;11.26;100.00;99616.47;6218395;28;20049;-73
2023/10/29 02:12:25;;;;;;;30.87;5.93;;;;;;;11.21;100.00;99611.56;6218628;28;20493;-73
2023/10/29 02:15:25;;;;;;;43.83;5.60;;;;;;;11.29;100.00;99611.84;6218587;28;20046;-76
2023/10/29 02:18:26;;;;;;;52.92;5.70;;;;;;;11.39;100.00;99613.84;6218594;28;20054;-76
2023/10/29 02:21:27;;;;;;;47.10;6.15;;;;;;;11.39;100.00;99619.06;6219569;28;20137;-76
2023/10/29 02:24:28;;;;;;;33.13;5.95;;;;;;;11.31;100.00;99618.75;6218479;28;20045;-74
2023/10/29 02:27:29;;;;;;;24.83;5.82;;;;;;;11.36;100.00;99629.72;6219541;28;20071;-76
2023/10/29 02:30:30;;;;;;;24.88;6.00;;;;;;;11.31;100.00;99626.59;6219164;28;20097;-73
2023/10/29 02:33:31;;;;;;;29.77;7.05;;;;;;;11.35;100.00;99652.38;6218295;28;20052;-73
2023/10/29 02:36:32;;;;;;;39.30;6.35;;;;;;;11.39;100.00;99658.25;6219329;28;20076;-76
2023/10/29 02:39:33;;;;;;;51.88;6.95;;;;;;;11.52;100.00;99658.19;6219428;28;20087;-76
2023/10/29 02:42:33;;;;;;;49.92;7.78;;;;;;;11.50;100.00;99656.50;6219049;28;20114;-73
2023/10/29 02:45:39;;;;;;;45.30;6.95;;;;;;;11.59;100.00;99641.97;6201027;28;20053;-73
2023/10/29 02:48:40;;;;;;;30.40;7.45;;;;;;;11.64;100.00;99639.84;6193679;28;20272;-74
2023/10/29 02:51:41;;;;;;;26.58;6.95;;;;;;;11.63;100.00;99650.41;6192817;28;20046;-73
2023/10/29 02:54:44;;;;;;;28.23;7.15;;;;;;;11.73;100.00;99629.69;6193579;28;20076;-74
2023/10/29 02:57:45;;;;;;;26.27;6.70;;;;;;;11.75;100.00;99631.22;6193332;28;20047;-74
2023/10/29 03:00:46;;;;;;;29.20;7.25;;;;;;;11.63;100.00;99624.28;6193487;28;20573;-74
2023/10/29 03:03:47;;;;;;;32.58;7.05;;;;;;;11.70;100.00;99631.56;6194336;28;20119;-76
2023/10/29 03:06:48;;;;;;;30.27;8.02;;;;;;;11.66;100.00;99632.75;6194314;28;20457;-75
2023/10/29 03:09:49;;;;;;;9.68;6.72;;;;;;;11.71;100.00;99640.25;6193063;28;20042;-76
2023/10/29 03:12:52;;;;;;;65.10;8.77;;;;;;;11.74;100.00;99644.44;6294891;28;20418;-76
2023/10/29 03:15:56;;;;;;;35.85;7.30;;;;;;;11.74;100.00;99642.66;6194290;28;20057;-76
2023/10/29 03:18:57;;;;;;;21.58;6.90;;;;;;;11.73;100.00;99640.13;6194464;28;20050;-73
2023/10/29 03:21:57;;;;;;;27.70;7.32;;;;;;;11.66;100.00;99644.97;6193061;28;20054;-73
2023/10/29 03:24:58;;;;;;;34.42;7.28;;;;;;;11.60;100.00;99641.03;6192877;28;20141;-74
2023/10/29 03:27:59;;;;;;;58.78;6.90;;;;;;;11.53;100.00;99637.19;6192902;28;20046;-76
2023/10/29 03:31:01;;;;;;;59.75;6.35;;;;;;;11.43;100.00;99650.06;6193780;28;20480;-74
2023/10/29 03:34:05;;;;;;;44.42;7.05;;;;;;;11.38;100.00;99649.53;6192867;28;20145;-73
2023/10/29 03:37:06;;;;;;;36.35;6.97;;;;;;;11.39;100.00;99653.84;6193835;28;20123;-73
2023/10/29 03:40:07;;;;;;;25.90;6.53;;;;;;;11.37;100.00;99652.28;6192409;28;20543;-76
2023/10/29 03:43:08;;;;;;;17.65;5.95;;;;;;;11.36;100.00;99640.16;6193743;28;20074;-76
2023/10/29 03:46:10;;;;;;;35.00;6.40;;;;;;;11.48;100.00;99653.16;6294990;28;20502;-76
2023/10/29 03:49:15;;;;;;;;;;;;;;;11.41;100.00;99656.34;6194143;28;20054;-76
2023/10/29 03:52:18;;;;;;;23.83;5.82;;;;;;;11.32;100.00;99647.38;6193851;28;19921;-75
2023/10/29 03:55:19;;;;;;;25.10;5.93;;;;;;;11.31;100.00;99656.16;6193765;28;20057;-74
2023/10/29 03:58:20;;;;;;;33.85;6.22;;;;;;;11.24;100.00;99645.31;6200798;28;20565;-74
2023/10/29 04:01:21;;;;;;;14.35;5.35;;;;;;;11.22;100.00;99649.81;6218545;28;20417;-74
2023/10/29 04:04:22;;;;;;;29.98;5.78;;;;;;;11.18;100.00;99643.13;6220857;28;20098;-74
2023/10/29 04:07:23;;;;;;;41.65;6.53;;;;;;;11.14;100.00;99638.22;6222057;28;20050;-73
2023/10/29 04:10:24;;;;;;;57.63;7.38;;;;;;;10.96;100.00;99641.16;6220650;28;20129;-73
2023/10/29 04:13:27;;;;;;;34.58;6.22;;;;;;;10.91;100.00;99648.47;6220846;28;20150;-76
2023/10/29 04:16:28;;;;;;;39.90;7.30;;;;;;;10.95;100.00;99649.09;6220753;28;20061;-75
2023/10/29 04:19:29;;;;;;;55.45;7.57;;;;;;;10.87;100.00;99644.41;6220907;28;20095;-75
2023/10/29 04:22:30;;;;;;;39.15;6.00;;;;;;;10.78;100.00;99647.66;6221709;28;20050;-73
2023/10/29 04:25:33;;;;;;;34.75;6.63;;;;;;;10.86;100.00;99640.97;6220597;28;20077;-74
2023/10/29 04:28:34;;;;;;;48.50;7.25;;;;;;;10.80;100.00;99644.00;6221658;28;20519;-76
2023/10/29 04:31:35;;;;;;;65.05;7.03;;;;;;;10.77;100.00;99646.81;6220110;28;20050;-76
2023/10/29 04:34:36;;;;;;;17.02;6.47;;;;;;;10.66;100.00;99646.72;6221707;28;20046;-75
2023/10/29 04:37:37;;;;;;;19.63;6.25;;;;;;;10.61;100.00;99643.59;6221248;28;20052;-76
2023/10/29 04:40:38;;;;;;;13.90;6.95;;;;;;;10.84;100.00;99653.28;6220481;28;20504;-73
2023/10/29 04:43:44;;;;;;;27.27;7.28;;;;;;;10.90;100.00;99646.81;6220080;28;20057;-76
2023/10/29 04:46:45;;;;;;;34.67;7.85;;;;;;;10.97;100.00;99645.44;6220417;28;20050;-75
2023/10/29 04:49:46;;;;;;;44.13;8.00;;;;;;;10.97;100.00;99639.38;6221230;28;20053;-75
2023/10/29 04:52:47;;;;;;;18.50;7.28;;;;;;;11.05;100.00;99640.53;6220106;28;20129;-73
2023/10/29 04:55:48;;;;;;;36.95;8.07;;;;;;;11.13;100.00;99636.56;6214810;28;20053;-73
2023/10/29 04:58:48;;;;;;;36.40;7.40;;;;;;;11.17;100.00;99636.22;6219969;28;20521;-76
2023/10/29 05:01:50;;;;;;;18.00;8.13;;;;;;;11.13;100.00;99637.38;6219966;28;20078;-76
2023/10/29 05:04:51;;;;;;;24.80;7.82;;;;;;;11.23;100.00;99643.63;6219865;28;20132;-76
2023/10/29 05:07:52;;;;;;;12.88;7.78;;;;;;;11.28;100.00;99641.53;6221085;28;20076;-76
2023/10/29 05:10:52;;;;;;;11.60;7.32;;;;;;;11.25;100.00;99652.19;6220684;28;20521;-75
2023/10/29 05:13:56;;;;;;;19.55;7.85;;;;;;;11.26;100.00;99660.84;6218953;28;20060;-76
2023/10/29 05:16:57;;;;;;;15.40;7.70;;;;;;;11.28;100.00;99657.22;6220766;28;20053;-74
2023/10/29 05:19:58;;;;;;;14.95;6.55;;;;;;;11.28;100.00;99654.59;6220955;28;20091;-74
2023/10/29 05:23:02;;;;;;;15.35;7.40;;;;;;;11.20;100.00;99654.31;6219574;28;20387;-74
2023/10/29 05:26:06;;;;;;;11.15;6.63;;;;;;;11.25;100.00;99660.03;6220805;28;20060;-74
2023/10/29 05:29:07;;;;;;;16.60;7.38;;;;;;;11.27;100.00;99660.75;6219620;28;20057;-74
2023/10/29 05:32:08;;;;;;;14.43;6.63;;;;;;;11.29;100.00;99650.22;6219390;28;20099;-73
2023/10/29 05:35:09;;;;;;;10.85;5.97;;;;;;;11.38;100.00;99652.16;6219424;28;20529;-74
2023/10/29 05:38:10;;;;;;;9.45;6.60;;;;;;;11.41;100.00;99653.75;6220130;28;20058;-74
2023/10/29 05:41:11;;;;;;;14.05;8.13;;;;;;;11.42;100.00;99650.16;6219554;28;20042;-74
2023/10/29 05:44:13;;;;;;;18.40;9.23;;;;;;;11.53;100.00;99652.00;6206164;28;20116;-74
2023/10/29 05:47:14;;;;;;;13.48;8.30;;;;;;;11.61;100.00;99655.78;6196105;28;20082;-73
2023/10/29 05:50:17;;;;;;;40.67;15.25;;;;;;;11.61;100.00;99666.22;6194656;28;20053;-76
2023/10/29 05:53:21;;;;;;;66.22;18.15;;;;;;;11.69;100.00;99674.34;6196013;28;20159;-75
2023/10/29 05:56:22;;;;;;;17.30;8.85;;;;;;;11.82;100.00;99665.59;6195830;28;20055;-75
2023/10/29 05:59:28;;;;;;;14.48;8.43;;;;;;;12.06;100.00;99663.84;6195902;28;20065;-75
2023/10/29 06:02:29;;;;;;;15.60;7.65;;;;;;;12.19;100.00;99678.63;6194500;28;20061;-76
2023/10/29 06:05:29;;;;;;;13.45;6.32;;;;;;;12.21;100.00;99684.59;6194347;28;20058;-75
2023/10/29 06:08:30;;;;;;;9.43;5.15;;;;;;;12.21;100.00;99681.97;6194605;28;20103;-74
2023/10/29 06:11:31;;;;;;;9.85;5.30;;;;;;;12.10;100.00;99685.38;6194171;28;20046;-74
2023/10/29 06:14:32;;;;;;;10.27;5.38;;;;;;;12.15;100.00;99700.72;6194359;28;20050;-73
2023/10/29 06:17:33;;;;;;;12.88;5.18;;;;;;;12.07;100.00;99709.16;6195864;28;20050;-76
2023/10/29 06:20:34;;;;;;;11.05;5.03;;;;;;;12.17;100.00;99711.91;6216855;28;20046;-75
2023/10/29 06:23:42;;;;;;;9.20;4.60;;;;;;;12.20;100.00;99712.53;6210381;28;20115;-76
2023/10/29 06:26:43;;;;;;;8.10;4.32;;;;;;;12.41;100.00;99717.13;6194314;28;20192;-74
2023/10/29 06:29:44;;;;;;;7.95;4.63;;;;;;;12.44;100.00;99716.91;6193939;28;20046;-74
2023/10/29 06:32:50;;;;;;;7.40;4.38;;;;;;;12.42;100.00;99711.78;6193603;28;20050;-74
2023/10/29 06:35:52;;;;;;;10.63;5.13;;;;;;;12.69;100.00;99721.97;6202825;28;20050;-75
2023/10/29 06:38:53;;;;;;;6.90;3.92;;;;;;;12.57;100.00;99719.44;6219115;28;20066;-76
2023/10/29 06:41:56;;;;;;;13.57;4.32;;;;;;;12.78;100.00;99722.25;6214330;28;20039;-76
2023/10/29 06:44:57;;;;;;;8.15;4.10;;;;;;;12.64;100.00;99715.41;6200143;28;20054;-76
2023/10/29 06:47:58;;;;;;;8.10;4.07;;;;;;;12.76;100.00;99724.13;6204023;28;20149;-75
2023/10/29 06:50:59;;;;;;;17.40;4.22;;;;;;;12.70;100.00;99720.19;6217772;28;20053;-75
2023/10/29 06:54:00;;;;;;;8.15;3.90;;;;;;;12.62;100.00;99720.78;6218072;28;20057;-73
2023/10/29 06:57:05;;;;;;;10.77;3.88;;;;;;;12.89;100.00;99730.13;6219095;28;20508;-74
2023/10/29 07:00:07;;;;;;;7.38;3.40;;;;;;;12.90;100.00;99732.59;6217975;28;20050;-74
2023/10/29 07:03:11;;;;;;;10.20;3.67;;;;;;;12.81;100.00;99735.09;6217531;28;20420;-73
2023/10/29 07:06:14;;;;;;;7.35;3.40;;;;;;;13.07;100.00;99727.88;6219219;28;20061;-74
2023/10/29 07:09:15;;;;;;;6.03;3.28;;;;;;;13.29;100.00;99743.63;6217669;28;20054;-76
2023/10/29 07:12:16;;;;;;;9.07;4.25;;;;;;;13.21;100.00;99738.13;6207570;28;20050;-76
2023/10/29 07:15:17;;;;;;;9.32;3.47;;;;;;;13.39;100.00;99741.16;6206446;28;20216;-75
2023/10/29 07:18:22;;;;;;;11.95;3.97;;;;;;;13.59;100.00;99741.38;6208279;28;20054;-76
2023/10/29 07:21:23;;;;;;;9.10;4.40;;;;;;;13.82;100.00;99752.69;6194342;28;20050;-75
2023/10/29 07:24:24;;;;;;;10.52;4.40;;;;;;;13.75;100.00;99756.72;6213117;28;20053;-74
2023/10/29 07:27:25;;;;;;;6.05;4.05;;;;;;;13.98;100.00;99768.88;6212339;28;20494;-74
2023/10/29 07:30:27;;;;;;;7.53;4.15;;;;;;;13.95;100.00;99761.22;6197764;28;20062;-74
2023/10/29 07:33:28;;;;;;;9.20;3.47;;;;;;;13.98;100.00;99762.75;6193362;28;20057;-73
2023/10/29 07:36:32;;;;;;;6.10;3.47;;;;;;;14.18;100.00;99755.94;6201478;28;20076;-74
2023/10/29 07:39:33;;;;;;;9.70;3.60;;;;;;;14.27;100.00;99749.94;6192869;28;20055;-73
2023/10/29 07:42:34;;;;;;;6.85;3.65;;;;;;;14.61;100.00;99745.41;6192160;28;20547;-73
2023/10/29 07:45:35;;;;;;;8.02;3.78;;;;;;;14.68;100.00;99753.59;6192662;28;20409;-76
2023/10/29 07:48:39;;;;;;;8.90;3.88;;;;;;;14.64;100.00;99754.81;6194446;28;20082;-73
2023/10/29 07:51:43;;;;;;;6.85;3.35;;;;;;;14.79;100.00;99745.69;6207817;28;20046;-73
2023/10/29 07:54:44;;;;;;;10.20;3.80;;;;;;;14.96;100.00;99740.81;6218095;28;20049;-73
2023/10/29 07:57:45;;;;;;;9.23;2.97;;;;;;;15.29;100.00;99750.25;6216704;28;20188;-76
2023/10/29 08:00:46;;;;;;;5.25;3.38;;;;;;;15.22;100.00;99763.09;6211915;28;20054;-76
2023/10/29 08:03:48;;;;;;;8.63;3.65;;;;;;;15.51;100.00;99770.28;6193431;28;20467;-72
2023/10/29 08:06:49;;;;;;;;;;;;;;;15.55;100.00;99766.41;6192778;28;20050;-73
2023/10/29 08:09:50;;;;;;;6.90;2.85;;;;;;;15.32;100.00;99768.41;6192519;28;20368;-72
2023/10/29 08:12:50;;;;;;;5.65;3.20;;;;;;;15.60;100.00;99779.16;6192663;28;20137;-73
2023/10/29 08:15:51;;;;;;;9.63;3.28;;;;;;;15.46;100.00;99769.81;6193575;28;20050;-73
2023/10/29 08:18:53;;;;;;;8.55;2.92;;;;;;;15.62;100.00;99775.41;6316033;28;20545;-73
2023/10/29 08:21:54;;;;;;;10.77;3.33;;;;;;;15.78;100.00;99780.22;6216507;28;20057;-76
2023/10/29 08:24:56;;;;;;;8.73;3.35;;;;;;;15.94;100.00;99782.34;6216373;28;20050;-74
2023/10/29 08:27:56;;;;;;;6.32;3.30;;;;;;;16.15;99.97;99791.97;6217834;28;20095;-73
2023/10/29 08:31:01;;;;;;;8.80;3.50;;;;;;;16.28;98.93;99784.63;6217452;28;20132;-73
2023/10/29 08:34:02;;;;;;;5.75;2.72;;;;;;;15.82;100.00;99784.25;6216320;28;20096;-76
2023/10/29 08:37:03;;;;;;;7.68;3.25;;;;;;;15.83;100.00;99783.28;6216167;28;20437;-76
2023/10/29 08:40:05;;;;;;;10.02;3.03;;;;;;;15.91;100.00;99780.81;6208330;28;20050;-76
2023/10/29 08:43:08;;;;;;;9.30;3.30;;;;;;;15.98;100.00;99780.25;6192063;28;20054;-73
2023/10/29 08:46:10;;;;;;;9.93;3.20;;;;;;;16.00;99.71;99787.09;6192098;28;20050;-75
2023/10/29 08:49:11;;;;;;;10.57;3.60;;;;;;;16.24;99.17;99791.13;6193846;28;20068;-75
2023/10/29 08:52:13;;;;;;;10.98;3.47;;;;;;;16.79;97.85;99793.25;6197074;28;20051;-76
2023/10/29 08:55:15;;;;;;;7.93;2.85;;;;;;;16.66;96.45;99802.25;6197263;28;20491;-75
2023/10/29 08:58:18;;;;;;;5.35;3.08;;;;;;;17.07;95.16;99810.00;6197070;28;20072;-75
2023/10/29 09:01:19;;;;;;;6.97;3.42;;;;;;;17.18;93.41;99804.59;6196134;28;20050;-76
2023/10/29 09:04:20;;;;;;;4.13;2.33;;;;;;;17.26;92.16;99801.25;6199409;28;20091;-76
2023/10/29 09:07:21;;;;;;;12.00;3.55;;;;;;;17.50;90.13;99791.03;6210942;28;20061;-76
2023/10/29 09:10:24;;;;;;;11.63;3.17;;;;;;;17.69;91.56;99792.75;6208479;28;20053;-75
2023/10/29 09:13:30;;;;;;;8.43;3.13;;;;;;;18.00;88.94;99794.31;6197473;28;20046;-73
2023/10/29 09:16:31;;;;;;;4.57;2.50;;;;;;;17.95;87.44;99799.19;6220025;28;20451;-76
2023/10/29 09:19:34;;;;;;;9.45;3.22;;;;;;;17.96;88.12;99793.75;6221138;28;20049;-73
2023/10/29 09:22:36;;;;;;;9.98;3.15;;;;;;;17.87;87.64;99795.50;6201505;28;20050;-76
2023/10/29 09:25:37;;;;;;;9.55;3.10;;;;;;;18.21;88.74;99800.13;6212306;28;20053;-76
2023/10/29 09:28:37;;;;;;;6.50;2.97;;;;;;;18.04;86.15;99799.13;6220808;28;20137;-76
2023/10/29 09:31:38;;;;;;;8.18;2.35;;;;;;;18.42;84.62;99791.94;6219487;28;20071;-74
2023/10/29 09:34:40;;;;;;;7.90;2.65;;;;;;;18.39;84.90;99797.53;6219547;28;20053;-75
2023/10/29 09:37:43;;;;;;;7.30;2.85;;;;;;;18.40;85.59;99782.50;6220345;28;20061;-75
2023/10/29 09:40:44;;;;;;;6.97;2.85;;;;;;;18.62;83.86;99781.22;6215784;28;20099;-76
2023/10/29 09:43:46;;;;;;;9.60;2.70;;;;;;;18.85;82.64;99774.50;6208860;28;20145;-76
2023/10/29 09:46:57;;;;;;;9.30;2.70;;;;;;;18.92;82.72;99767.63;6202200;28;20058;-75
2023/10/29 09:49:58;;;;;;;6.53;2.65;;;;;;;18.82;82.69;99780.09;6218711;28;20136;-75
2023/10/29 09:53:01;;;;;;;10.20;2.88;;;;;;;19.12;80.39;99776.16;6207773;28;20050;-75
2023/10/29 09:56:05;;;;;;;4.55;2.40;;;;;;;19.02;80.58;99780.72;6215039;28;20057;-74
2023/10/29 09:59:06;;;;;;;3.35;2.05;;;;;;;19.16;80.43;99791.72;6219287;28;20049;-73
2023/10/29 10:02:08;;;;;;;7.45;2.60;;;;;;;19.17;79.31;99788.09;6220005;28;20042;-76
2023/10/29 10:05:10;;;;;;;5.10;2.10;;;;;;;19.43;79.42;99788.91;6218931;28;20050;-73
2023/10/29 10:08:10;;;;;;;;;;;;;;;19.87;78.49;99796.75;6219289;28;20053;-73
2023/10/29 10:11:22;;;;;;;11.55;2.45;;;;;;;19.69;77.12;99788.06;6218506;28;19943;-75
2023/10/29 10:14:26;;;;;;;7.03;1.95;;;;;;;19.51;77.94;99785.47;6219588;28;20420;-76
2023/10/29 10:17:28;;;;;;;5.65;2.22;;;;;;;19.70;77.42;99790.53;6219659;28;20054;-76
2023/10/29 10:20:29;;;;;;;9.77;1.80;;;;;;;19.39;75.80;99790.22;6219714;28;20132;-76
2023/10/29 10:23:46;;;;;;;6.47;1.95;;;;;;;19.30;77.10;99791.16;6218495;28;20060;-76
2023/10/29 10:26:48;;;;;;;8.00;1.80;;;;;;;19.36;76.09;99790.53;6219818;28;20041;-73
2023/10/29 10:29:50;;;;;;;4.97;1.98;;;;;;;19.71;75.08;99786.09;6219506;28;20138;-76
2023/10/29 10:32:51;;;;;;;7.22;1.63;;;;;;;19.87;74.31;99782.66;6219675;28;20061;-74
2023/10/29 10:35:54;;;;;;;11.90;2.20;;;;;;;19.70;73.87;99781.75;6217892;28;20557;-73
2023/10/29 10:38:55;;;;;;;5.50;2.17;;;;;;;20.18;73.37;99776.81;6219149;28;20104;-76
2023/10/29 10:41:56;;;;;;;7.75;1.70;;;;;;;19.99;73.38;99772.63;6219141;28;20050;-76
2023/10/29 10:44:59;;;;;;;5.77;2.10;;;;;;;20.29;74.08;99774.69;6219050;28;20046;-76
2023/10/29 10:48:04;;;;;;;5.95;2.10;;;;;;;20.20;73.91;99772.16;6217844;28;20075;-76
2023/10/29 10:51:06;;;;;;;4.40;1.80;;;;;;;20.45;73.63;99775.72;6217756;28;20046;-73
2023/10/29 10:54:10;;;;;;;4.13;1.77;;;;;;;20.40;71.28;99773.53;6217854;28;20050;-73
2023/10/29 10:57:12;;;;;;;5.85;1.58;;;;;;;20.18;71.30;99777.66;6218924;28;20401;-73
2023/10/29 11:00:14;;;;;;;7.30;2.03;;;;;;;20.26;71.35;99767.06;6217676;28;20439;-76
2023/10/29 11:03:17;;;;;;;5.45;1.83;;;;;;;20.61;72.84;99767.78;6217519;28;20140;-76
2023/10/29 11:06:18;;;;;;;2.55;1.58;;;;;;;20.83;71.76;99766.28;6217710;28;20050;-76
2023/10/29 11:09:23;;;;;;;4.47;1.90;;;;;;;20.51;69.99;99761.81;6217774;28;20110;-76
2023/10/29 11:12:24;;;;;;;7.97;1.60;;;;;;;20.90;70.85;99777.06;6218078;28;20058;-76
2023/10/29 11:15:24;;;;;;;4.83;1.40;;;;;;;20.85;69.01;99766.94;6217375;28;20064;-73
2023/10/29 11:18:31;;;;;;;7.35;1.80;;;;;;;20.68;70.92;99765.31;6217728;28;20054;-76
2023/10/29 11:21:34;;;;;;;4.20;1.58;;;;;;;20.17;70.81;99765.38;6217341;28;20478;-76
2023/10/29 11:24:36;;;;;;;4.60;1.73;;;;;;;20.38;71.76;99761.44;6218437;28;20107;-76
2023/10/29 11:27:47;;;;;;;7.20;2.00;;;;;;;20.20;71.89;99754.47;6218530;28;20410;-76
2023/10/29 11:31:14;;;;;;;3.55;1.38;;;;;;;20.73;72.34;99749.72;6218272;28;20107;-76
2023/10/29 11:34:24;;;;;;;4.45;1.52;;;;;;;20.55;69.96;99752.53;6217231;28;20054;-76
2023/10/29 11:37:36;;;;;;;5.53;1.30;;;;;;;20.43;72.76;99752.00;6216802;28;20512;-76
2023/10/29 11:40:37;;;;;;;2.25;1.20;;;;;;;20.20;73.45;99750.97;6216977;28;20042;-76
2023/10/29 11:43:39;;;;;;;5.53;1.60;;;;;;;19.91;73.32;99746.94;6217084;28;20050;-76
2023/10/29 11:46:59;;;;;;;5.38;1.60;;;;;;;19.77;71.90;99751.06;6217012;28;20085;-73
2023/10/29 11:50:00;;;;;;;2.70;1.38;;;;;;;19.87;73.46;99748.25;6216962;28;20050;-74
2023/10/29 11:53:03;;;;;;;3.67;1.63;;;;;;;19.85;73.58;99734.34;6217003;28;20089;-73
2023/10/29 11:56:09;;;;;;;6.78;2.13;;;;;;;19.71;75.41;99741.13;6216831;28;20505;-73
2023/10/29 11:59:10;;;;;;;2.55;1.38;;;;;;;19.43;75.73;99737.81;6207053;28;20046;-73
2023/10/29 12:02:14;;;;;;;8.70;1.63;;;;;;;19.50;73.39;99733.56;6205857;28;20050;-73
2023/10/29 12:05:15;;;;;;;4.80;1.40;;;;;;;19.67;72.87;99722.03;6202646;28;20082;-73
2023/10/29 12:08:17;;;;;;;2.42;1.38;;;;;;;19.91;72.61;99723.13;6206236;28;20521;-74
2023/10/29 12:11:25;;;;;;;2.80;1.45;;;;;;;20.01;73.36;99713.22;6206801;28;20057;-75
2023/10/29 12:14:39;;;;;;;7.40;1.75;;;;;;;20.19;73.62;99714.91;6202587;28;20049;-76
2023/10/29 12:17:44;;;;;;;3.35;1.40;;;;;;;20.14;71.56;99715.41;6206211;28;20056;-76
2023/10/29 12:20:48;;;;;;;6.78;1.88;;;;;;;19.93;72.63;99700.81;6214852;28;20052;-76
2023/10/29 12:23:49;;;;;;;3.25;1.48;;;;;;;19.77;73.32;99700.75;6196934;28;20064;-76
2023/10/29 12:26:50;;;;;;;5.28;1.95;;;;;;;19.87;73.81;99703.25;6218857;28;20050;-76
2023/10/29 12:29:51;;;;;;;4.38;1.80;;;;;;;20.07;73.42;99701.13;6209249;28;20067;-76
2023/10/29 12:33:19;;;;;;;4.53;1.73;;;;;;;19.87;73.17;99701.44;6201197;28;20050;-75
2023/10/29 12:36:20;;;;;;;8.82;1.92;;;;;;;19.97;71.93;99690.69;6216765;28;20120;-76
2023/10/29 12:39:21;;;;;;;2.83;1.40;;;;;;;20.09;72.54;99696.50;6218893;28;20436;-76
2023/10/29 12:42:54;;;;;;;7.80;2.10;;;;;;;20.46;72.67;99689.91;6213747;28;20406;-76
2023/10/29 12:46:00;;;;;;;7.65;2.15;;;;;;;20.59;72.28;99690.28;6212861;28;20052;-73
2023/10/29 12:49:08;;;;;;;4.00;1.80;;;;;;;20.46;72.12;99688.06;6206041;28;20070;-76
2023/10/29 12:52:15;;;;;;;7.22;1.92;;;;;;;20.37;71.49;99691.72;6214746;28;20076;-76
2023/10/29 12:55:16;;;;;;;3.63;1.48;;;;;;;20.36;71.06;99686.59;6205976;28;20054;-76
2023/10/29 12:58:18;;;;;;;6.07;1.93;;;;;;;20.35;70.33;99677.00;6203856;28;20061;-76
2023/10/29 13:01:19;;;;;;;5.72;1.88;;;;;;;20.53;70.21;99677.66;6214529;28;20089;-73
2023/10/29 13:04:23;;;;;;;5.07;1.87;;;;;;;20.61;70.81;99676.81;6195781;28;20108;-73
2023/10/29 13:07:27;;;;;;;3.92;1.55;;;;;;;20.57;70.10;99684.28;6195969;28;20050;-74
2023/10/29 13:10:27;;;;;;;3.53;1.50;;;;;;;20.13;69.58;99682.78;6196571;28;20051;-73
2023/10/29 13:13:28;;;;;;;3.10;1.40;;;;;;;20.46;69.69;99682.78;6297038;28;20046;-75
2023/10/29 13:16:29;;;;;;;6.23;1.40;;;;;;;20.58;69.77;99688.59;6198482;28;20195;-76
2023/10/29 13:19:30;;;;;;;3.43;1.57;;;;;;;20.64;68.82;99689.75;6197502;28;20468;-75
2023/10/29 13:22:31;;;;;;;4.07;1.70;;;;;;;20.66;68.74;99685.13;6195595;28;20089;-73
2023/10/29 13:25:32;;;;;;;3.00;1.53;;;;;;;20.70;68.77;99684.59;6212106;28;20114;-74
2023/10/29 13:28:34;;;;;;;4.22;1.25;;;;;;;20.54;68.68;99676.66;6219594;28;20103;-76
2023/10/29 13:31:35;;;;;;;3.70;1.30;;;;;;;20.67;68.58;99674.38;6219312;28;20455;-76
2023/10/29 13:34:36;;;;;;;4.30;1.53;;;;;;;20.44;69.34;99676.00;6218745;28;20551;-75
2023/10/29 13:37:37;;;;;;;4.20;1.43;;;;;;;20.44;70.20;99668.88;6219243;28;20053;-73
2023/10/29 13:40:41;;;;;;;5.43;1.63;;;;;;;20.45;69.36;99670.53;6220564;28;20124;-73
2023/10/29 13:43:42;;;;;;;6.00;1.55;;;;;;;20.41;70.19;99674.50;6218951;28;20050;-73
2023/10/29 13:46:43;;;;;;;3.08;1.33;;;;;;;20.21;69.74;99676.66;6219021;28;20050;-75
2023/10/29 13:49:44;;;;;;;2.58;1.35;;;;;;;20.14;69.41;99667.72;6217905;28;20072;-75
2023/10/29 13:52:45;;;;;;;9.00;2.13;;;;;;;20.21;70.37;99671.34;6218407;28;20096;-75
2023/10/29 13:55:46;;;;;;;3.47;1.90;;;;;;;20.21;69.86;99666.06;6219312;28;20050;-76
2023/10/29 13:58:47;;;;;;;7.93;1.67;;;;;;;20.05;69.79;99663.41;6219621;28;20053;-75
2023/10/29 14:01:48;;;;;;;2.47;1.43;;;;;;;20.09;69.68;99665.56;6220061;28;20053;-76
2023/10/29 14:04:49;;;;;;;3.33;1.53;;;;;;;19.96;69.41;99659.94;6204390;28;20059;-72
2023/10/29 14:07:51;;;;;;;3.60;1.50;;;;;;;20.04;70.12;99659.94;6194610;28;20050;-73